Time;durP1;ratioP1;P1;durP2;ratioP2;P2;SDS_P1;SDS_P2;PMS_P1;PMS_P2;Temp;Humidity;BMP_temperature;BMP_pressure;BME280_temperature;BME280_humidity;BME280_pressure;Samples;Min_cycle;Max_cycle;Signal;HPM_P1;HPM_P2
2021/01/26 00:00:52;;;;;;;17.52;10.25;;;20.40;99.90;;;;;;5072805;28;20517;-31
2021/01/26 00:03:18;;;;;;;15.55;9.05;;;20.40;99.90;;;;;;5073822;28;20044;-32
2021/01/26 00:05:44;;;;;;;20.27;10.73;;;20.30;99.90;;;;;;5072985;28;20075;-32
2021/01/26 00:08:10;;;;;;;17.75;9.35;;;20.30;99.90;;;;;;5073718;28;20032;-31
2021/01/26 00:10:36;;;;;;;18.20;9.45;;;20.30;99.90;;;;;;5073210;28;20493;-31
2021/01/26 00:13:04;;;;;;;14.30;9.65;;;20.20;99.90;;;;;;5072743;28;20024;-31
2021/01/26 00:15:30;;;;;;;15.43;9.50;;;20.20;99.90;;;;;;5071150;28;20474;-32
2021/01/26 00:17:56;;;;;;;14.35;8.15;;;20.30;99.90;;;;;;5073939;28;20040;-32
2021/01/26 00:20:22;;;;;;;18.27;9.07;;;20.20;99.90;;;;;;5055593;28;20025;-31
2021/01/26 00:22:48;;;;;;;11.07;7.88;;;20.20;99.90;;;;;;5073659;28;20029;-32
2021/01/26 00:25:22;;;;;;;10.77;7.95;;;20.20;99.90;;;;;;5073503;28;20027;-30
2021/01/26 00:27:48;;;;;;;13.80;8.55;;;20.20;99.90;;;;;;5069321;28;20060;-30
2021/01/26 00:30:21;;;;;;;14.27;7.95;;;20.20;99.90;;;;;;5073827;28;20056;-30
2021/01/26 00:32:47;;;;;;;11.43;7.65;;;20.20;99.90;;;;;;5072831;28;20021;-30
2021/01/26 00:35:15;;;;;;;13.02;8.18;;;20.20;99.90;;;;;;5086458;28;20113;-30
2021/01/26 00:37:41;;;;;;;13.55;8.60;;;20.20;99.90;;;;;;5080755;28;20028;-30
2021/01/26 00:40:08;;;;;;;14.60;9.65;;;20.10;99.90;;;;;;5077691;28;20028;-30
2021/01/26 00:42:35;;;;;;;18.40;12.13;;;20.10;99.90;;;;;;5093773;28;20032;-30
2021/01/26 00:45:02;;;;;;;21.25;15.48;;;20.10;99.90;;;;;;5076040;28;20039;-30
2021/01/26 00:47:28;;;;;;;20.60;16.52;;;20.10;99.90;;;;;;5089619;28;20030;-30
2021/01/26 00:49:54;;;;;;;28.08;19.60;;;20.10;99.90;;;;;;5086261;28;20441;-30
2021/01/26 00:52:20;;;;;;;28.35;19.70;;;20.10;99.90;;;;;;5076166;28;20036;-30
2021/01/26 00:54:46;;;;;;;23.42;17.83;;;20.10;99.90;;;;;;5073626;28;20033;-30
2021/01/26 00:57:19;;;;;;;22.65;17.67;;;20.10;99.90;;;;;;5073458;28;20024;-30
2021/01/26 00:59:46;;;;;;;25.00;17.08;;;20.10;99.90;;;;;;5083462;28;20463;-30
2021/01/26 01:02:12;;;;;;;24.63;17.77;;;20.10;99.90;;;;;;5076378;28;20020;-30
2021/01/26 01:04:37;;;;;;;22.83;17.20;;;20.10;99.90;;;;;;5090122;28;20074;-30
2021/01/26 01:07:03;;;;;;;23.40;16.50;;;20.10;99.90;;;;;;5076533;28;20038;-30
2021/01/26 01:09:29;;;;;;;21.60;16.17;;;20.10;99.90;;;;;;5073271;28;20103;-30
2021/01/26 01:11:55;;;;;;;24.42;17.08;;;20.00;99.90;;;;;;5074036;28;20028;-30
2021/01/26 01:14:20;;;;;;;24.80;16.77;;;20.00;99.90;;;;;;5076962;28;20370;-30
2021/01/26 01:16:46;;;;;;;22.77;15.90;;;20.00;99.90;;;;;;5093038;28;20047;-30
2021/01/26 01:19:12;;;;;;;27.15;17.85;;;20.00;99.90;;;;;;5088432;28;20035;-30
2021/01/26 01:21:38;;;;;;;23.83;16.30;;;20.00;99.90;;;;;;5079451;28;20451;-30
2021/01/26 01:24:04;;;;;;;22.70;16.08;;;20.00;99.90;;;;;;5092961;28;20094;-30
2021/01/26 01:26:30;;;;;;;28.38;16.77;;;20.00;99.90;;;;;;5077218;28;20036;-31
2021/01/26 01:28:55;;;;;;;27.98;17.67;;;20.00;99.90;;;;;;5088929;28;20062;-30
2021/01/26 01:31:21;;;;;;;24.48;15.75;;;20.00;99.90;;;;;;5078703;28;20029;-30
2021/01/26 01:33:47;;;;;;;25.40;16.17;;;20.00;99.90;;;;;;5074894;28;20039;-30
2021/01/26 01:36:13;;;;;;;26.23;16.38;;;20.00;99.90;;;;;;5092451;28;20044;-30
2021/01/26 01:38:38;;;;;;;26.63;15.88;;;20.00;99.90;;;;;;5093467;28;20046;-30
2021/01/26 01:41:04;;;;;;;21.27;14.88;;;20.00;99.90;;;;;;5093143;28;20527;-30
2021/01/26 01:43:30;;;;;;;19.45;13.18;;;20.00;99.90;;;;;;5092973;28;20081;-30
2021/01/26 01:45:56;;;;;;;23.00;13.98;;;20.00;99.90;;;;;;5097354;28;20059;-30
2021/01/26 01:48:26;;;;;;;20.77;13.63;;;19.90;99.90;;;;;;5102812;28;20028;-30
2021/01/26 01:51:04;;;;;;;23.13;13.98;;;19.90;99.90;;;;;;5097796;28;20115;-31
2021/01/26 01:53:55;;;;;;;19.58;13.20;;;19.90;99.90;;;;;;5103052;28;20077;-30
2021/01/26 01:56:29;;;;;;;18.52;12.85;;;19.90;99.90;;;;;;5109494;28;20082;-30
2021/01/26 01:59:19;;;;;;;17.20;12.98;;;19.90;99.90;;;;;;5108267;28;20452;-30
2021/01/26 02:01:47;;;;;;;17.40;12.57;;;19.90;99.90;;;;;;5097458;28;20028;-30
2021/01/26 02:04:17;;;;;;;20.10;13.65;;;19.90;99.90;;;;;;5098969;28;20024;-30
2021/01/26 02:06:45;;;;;;;20.23;13.65;;;19.90;99.90;;;;;;5113084;28;20027;-31
2021/01/26 02:09:28;;;;;;;21.67;13.10;;;19.90;99.90;;;;;;5105682;28;20028;-31
2021/01/26 02:11:55;;;;;;;18.50;12.32;;;19.80;99.90;;;;;;5092590;28;20019;-30
2021/01/26 02:14:21;;;;;;;16.42;11.70;;;19.90;99.90;;;;;;5092766;28;20025;-31
2021/01/26 02:16:59;;;;;;;15.02;12.80;;;19.80;99.90;;;;;;5092504;28;20078;-30
2021/01/26 02:20:02;;;;;;;19.30;12.52;;;19.90;99.90;;;;;;5096379;28;20103;-31
2021/01/26 02:22:53;;;;;;;18.85;12.18;;;19.90;99.90;;;;;;5106728;28;20028;-31
2021/01/26 02:25:43;;;;;;;19.10;12.40;;;19.80;99.90;;;;;;5092407;28;20165;-31
2021/01/26 02:28:47;;;;;;;15.95;11.50;;;19.80;99.90;;;;;;5097761;28;20500;-31
2021/01/26 02:31:31;;;;;;;19.15;10.80;;;19.80;99.90;;;;;;5089034;28;20097;-31
2021/01/26 02:34:34;;;;;;;13.60;10.57;;;19.80;99.90;;;;;;5099403;28;20028;-31
2021/01/26 02:37:30;;;;;;;17.05;10.70;;;19.80;99.90;;;;;;5116231;28;20118;-31
2021/01/26 02:40:44;;;;;;;15.70;11.23;;;19.70;99.90;;;;;;5113371;28;20043;-31
2021/01/26 02:43:22;;;;;;;14.38;9.80;;;19.70;99.90;;;;;;5094405;28;20044;-31
2021/01/26 02:46:10;;;;;;;13.70;10.20;;;19.70;99.90;;;;;;5095570;28;20115;-31
2021/01/26 02:48:58;;;;;;;12.38;9.35;;;19.70;99.90;;;;;;5095288;28;20020;-31
2021/01/26 02:51:54;;;;;;;10.90;8.13;;;19.70;99.90;;;;;;5095621;28;20024;-31
2021/01/26 02:54:42;;;;;;;9.02;7.75;;;19.70;99.90;;;;;;5113443;28;20023;-31
2021/01/26 02:57:35;;;;;;;10.77;7.28;;;19.70;99.90;;;;;;5111331;28;20043;-31
2021/01/26 03:00:10;;;;;;;8.68;6.53;;;19.70;99.90;;;;;;5107689;28;20024;-31
2021/01/26 03:03:05;;;;;;;6.97;5.40;;;19.70;99.90;;;;;;5113550;28;20019;-31
2021/01/26 03:05:43;;;;;;;8.55;5.18;;;19.60;99.90;;;;;;5109865;28;20031;-31
2021/01/26 03:08:19;;;;;;;7.25;4.85;;;19.70;99.90;;;;;;5095495;28;20031;-31
2021/01/26 03:11:12;;;;;;;7.65;5.30;;;19.70;99.90;;;;;;5102220;28;20028;-31
2021/01/26 03:13:42;;;;;;;5.40;4.18;;;19.60;99.90;;;;;;5105843;28;20044;-31
2021/01/26 03:16:13;;;;;;;5.88;3.75;;;19.60;99.90;;;;;;5096044;28;20020;-31
2021/01/26 03:18:52;;;;;;;6.35;4.00;;;19.60;99.90;;;;;;5095387;28;20024;-31
2021/01/26 03:21:20;;;;;;;5.97;4.10;;;19.60;99.90;;;;;;5094809;28;20024;-31
2021/01/26 03:23:53;;;;;;;6.53;4.97;;;19.60;99.90;;;;;;5106031;28;20031;-31
2021/01/26 03:26:21;;;;;;;7.07;3.75;;;19.60;99.90;;;;;;5111648;28;20505;-31
2021/01/26 03:28:56;;;;;;;5.97;3.58;;;19.60;99.90;;;;;;5099861;28;20019;-31
2021/01/26 03:31:32;;;;;;;5.53;3.60;;;19.60;99.90;;;;;;5112175;28;20039;-31
2021/01/26 03:33:58;;;;;;;5.15;3.35;;;19.60;99.90;;;;;;5095209;28;20016;-31
2021/01/26 03:36:24;;;;;;;7.03;3.92;;;19.60;99.90;;;;;;5112829;28;20055;-31
2021/01/26 03:38:53;;;;;;;7.32;2.53;;;19.60;99.90;;;;;;5113493;28;20500;-31
2021/01/26 03:41:19;;;;;;;5.40;3.33;;;19.60;99.90;;;;;;5109427;28;20028;-34
2021/01/26 03:43:47;;;;;;;4.68;2.83;;;19.60;99.90;;;;;;5094875;28;20024;-31
2021/01/26 03:46:51;;;;;;;5.55;2.17;;;19.60;99.90;;;;;;5099244;28;20019;-31
2021/01/26 03:49:41;;;;;;;5.82;2.90;;;19.60;99.90;;;;;;5115018;28;20051;-31
2021/01/26 03:52:21;;;;;;;5.10;3.00;;;19.60;99.90;;;;;;5107674;28;20027;-31
2021/01/26 03:55:14;;;;;;;6.68;2.55;;;19.60;99.90;;;;;;5090984;28;20062;-31
2021/01/26 03:57:58;;;;;;;6.57;2.20;;;19.60;99.90;;;;;;5060412;28;20054;-31
2021/01/26 04:00:41;;;;;;;5.03;2.78;;;19.50;99.90;;;;;;5078237;28;20062;-31
2021/01/26 04:03:32;;;;;;;10.38;2.95;;;19.50;99.90;;;;;;5114172;28;20484;-31
2021/01/26 04:06:05;;;;;;;4.80;2.42;;;19.50;99.90;;;;;;5107427;28;20024;-31
2021/01/26 04:08:49;;;;;;;6.85;2.00;;;19.50;99.90;;;;;;5094463;28;20107;-31
2021/01/26 04:11:26;;;;;;;6.35;2.58;;;19.50;99.90;;;;;;5098864;28;20478;-31
2021/01/26 04:14:03;;;;;;;7.77;2.70;;;19.60;99.90;;;;;;5094375;28;20851;-31
2021/01/26 04:16:38;;;;;;;7.05;2.63;;;19.50;99.90;;;;;;5093807;28;20348;-31
2021/01/26 04:19:07;;;;;;;5.78;2.78;;;19.60;99.90;;;;;;5076597;28;20024;-31
2021/01/26 04:21:34;;;;;;;5.22;2.25;;;19.60;99.90;;;;;;5113748;28;20031;-31
2021/01/26 04:24:00;;;;;;;6.70;2.20;;;19.60;99.90;;;;;;5095285;28;20084;-31
2021/01/26 04:26:30;;;;;;;3.83;2.35;;;19.60;99.90;;;;;;5108845;28;20029;-31
2021/01/26 04:28:56;;;;;;;5.18;2.40;;;19.50;99.90;;;;;;5093884;28;20165;-31
2021/01/26 04:31:22;;;;;;;6.07;2.13;;;19.50;99.90;;;;;;5097511;28;20028;-32
2021/01/26 04:33:49;;;;;;;4.60;2.25;;;19.50;99.90;;;;;;5093781;28;20681;-30
2021/01/26 04:36:18;;;;;;;4.50;2.47;;;19.60;99.90;;;;;;5112313;28;20047;-31
2021/01/26 04:38:44;;;;;;;6.40;2.58;;;19.50;99.90;;;;;;5112561;28;20031;-31
2021/01/26 04:41:30;;;;;;;7.00;2.17;;;19.50;99.90;;;;;;5113856;28;20767;-31
2021/01/26 04:44:21;;;;;;;7.17;2.10;;;19.50;99.90;;;;;;5082884;28;20107;-31
2021/01/26 04:46:47;;;;;;;5.47;2.03;;;19.50;99.90;;;;;;5093624;28;20024;-31
2021/01/26 04:49:23;;;;;;;6.47;2.67;;;19.50;99.90;;;;;;5103019;28;20106;-31
2021/01/26 04:52:14;;;;;;;7.55;3.05;;;19.50;99.90;;;;;;5096416;28;20028;-32
2021/01/26 04:55:04;;;;;;;6.28;2.30;;;19.50;99.90;;;;;;5086261;28;20036;-31
2021/01/26 04:57:51;;;;;;;5.95;2.78;;;19.50;99.90;;;;;;5093556;28;20050;-32
2021/01/26 05:00:28;;;;;;;7.88;2.38;;;19.50;99.90;;;;;;5103974;28;20508;-31
2021/01/26 05:03:37;;;;;;;4.72;2.20;;;19.50;99.90;;;;;;5093407;28;20085;-31
2021/01/26 05:06:06;;;;;;;6.70;2.28;;;19.50;99.90;;;;;;5094115;28;20046;-32
2021/01/26 05:08:36;;;;;;;9.57;2.90;;;19.50;99.90;;;;;;5114044;28;20024;-31
2021/01/26 05:11:14;;;;;;;6.47;2.13;;;19.40;99.90;;;;;;5096839;28;20031;-31
2021/01/26 05:13:47;;;;;;;5.15;2.53;;;19.50;99.90;;;;;;5093095;28;20024;-31
2021/01/26 05:16:24;;;;;;;4.50;2.08;;;19.50;99.90;;;;;;5095492;28;20036;-31
2021/01/26 05:19:11;;;;;;;5.90;2.50;;;19.40;99.90;;;;;;5098022;28;20385;-31
2021/01/26 05:21:48;;;;;;;6.88;2.60;;;19.50;99.90;;;;;;5114032;28;20023;-31
2021/01/26 05:24:26;;;;;;;8.25;3.85;;;19.50;99.90;;;;;;5100273;28;20102;-31
2021/01/26 05:26:51;;;;;;;9.77;3.50;;;19.40;99.90;;;;;;5093034;28;20020;-31
2021/01/26 05:29:17;;;;;;;11.60;3.40;;;19.40;99.90;;;;;;5082990;28;20104;-31
2021/01/26 05:31:48;;;;;;;12.48;3.42;;;19.40;99.90;;;;;;5104833;28;20363;-31
2021/01/26 05:34:16;;;;;;;7.03;2.40;;;19.40;99.90;;;;;;5097529;28;20015;-30
2021/01/26 05:36:44;;;;;;;6.53;2.88;;;19.40;99.90;;;;;;5075161;28;20059;-30
2021/01/26 05:39:16;;;;;;;6.38;2.65;;;19.40;99.90;;;;;;5069908;28;20032;-35
2021/01/26 05:41:42;;;;;;;6.43;2.05;;;19.40;99.90;;;;;;5072735;28;20402;-35
2021/01/26 05:44:08;;;;;;;4.38;1.75;;;19.40;99.90;;;;;;5071577;28;20033;-35
2021/01/26 05:46:39;;;;;;;5.18;2.22;;;19.40;99.90;;;;;;5064018;28;20174;-35
2021/01/26 05:49:05;;;;;;;3.70;1.70;;;19.40;99.90;;;;;;5071935;28;20040;-35
2021/01/26 05:51:33;;;;;;;7.13;2.33;;;19.40;99.90;;;;;;5072090;28;20783;-35
2021/01/26 05:54:26;;;;;;;5.20;2.05;;;19.40;99.90;;;;;;5071091;28;20017;-37
2021/01/26 05:56:55;;;;;;;6.07;2.08;;;19.40;99.90;;;;;;5066758;28;20081;-37
2021/01/26 05:59:30;;;;;;;6.45;2.15;;;19.40;99.90;;;;;;5069901;28;20081;-37
2021/01/26 06:02:16;;;;;;;5.35;2.10;;;19.40;99.90;;;;;;5071770;28;20543;-36
2021/01/26 06:04:43;;;;;;;7.93;1.77;;;19.40;99.90;;;;;;5051808;28;20426;-36
2021/01/26 06:07:24;;;;;;;5.60;2.30;;;19.40;99.90;;;;;;5068324;28;20115;-37
2021/01/26 06:09:51;;;;;;;7.30;1.95;;;19.40;99.90;;;;;;5071460;28;20486;-36
2021/01/26 06:12:22;;;;;;;5.85;2.13;;;19.40;99.90;;;;;;5075217;28;20376;-37
2021/01/26 06:14:57;;;;;;;4.63;2.00;;;19.40;99.90;;;;;;5074969;28;20021;-36
2021/01/26 06:17:25;;;;;;;5.07;2.38;;;19.40;99.90;;;;;;5075383;28;20020;-36
2021/01/26 06:20:03;;;;;;;8.32;2.20;;;19.40;99.90;;;;;;5075384;28;20044;-35
2021/01/26 06:22:29;;;;;;;6.40;2.60;;;19.30;99.90;;;;;;5055622;28;20049;-36
2021/01/26 06:24:56;;;;;;;10.77;2.75;;;19.30;99.90;;;;;;5055365;28;20048;-35
2021/01/26 06:27:51;;;;;;;5.20;2.22;;;19.30;99.90;;;;;;5056406;28;20021;-36
2021/01/26 06:30:20;;;;;;;7.32;2.38;;;19.30;99.90;;;;;;5071675;28;20021;-35
2021/01/26 06:33:09;;;;;;;7.40;2.78;;;19.40;99.90;;;;;;5075477;28;20494;-36
2021/01/26 06:35:59;;;;;;;6.45;2.08;;;19.30;99.90;;;;;;5074999;28;20040;-35
2021/01/26 06:38:30;;;;;;;4.50;2.22;;;19.40;99.90;;;;;;5074815;28;20131;-36
2021/01/26 06:41:20;;;;;;;6.68;2.58;;;19.30;99.90;;;;;;5074983;28;20490;-36
2021/01/26 06:44:04;;;;;;;5.60;2.40;;;19.30;99.90;;;;;;5074775;28;20024;-36
2021/01/26 06:47:00;;;;;;;8.20;3.55;;;19.30;99.90;;;;;;5056922;28;20024;-35
2021/01/26 06:49:45;;;;;;;6.43;2.65;;;19.30;99.90;;;;;;5074684;28;20489;-37
2021/01/26 06:52:21;;;;;;;5.70;2.38;;;19.30;99.90;;;;;;5074503;28;20036;-34
2021/01/26 06:54:54;;;;;;;5.82;2.33;;;19.30;99.90;;;;;;5074178;28;20070;-35
2021/01/26 06:57:41;;;;;;;4.95;2.38;;;19.30;99.90;;;;;;5064510;28;20012;-37
2021/01/26 07:00:41;;;;;;;10.40;3.65;;;19.30;99.90;;;;;;5070923;28;20016;-36
2021/01/26 07:03:57;;;;;;;18.30;11.73;;;19.30;99.90;;;;;;5072357;28;20016;-37
2021/01/26 07:06:53;;;;;;;41.17;33.78;;;19.30;99.90;;;;;;4988827;28;20039;-37
2021/01/26 07:09:35;;;;;;;85.30;69.85;;;19.30;99.90;;;;;;5006108;28;20037;-36
2021/01/26 07:12:33;;;;;;;104.88;89.55;;;19.30;99.90;;;;;;4993005;28;20979;-36
2021/01/26 07:15:13;;;;;;;99.30;85.72;;;19.30;99.90;;;;;;4986703;28;20105;-36
2021/01/26 07:18:14;;;;;;;99.80;86.90;;;19.40;99.90;;;;;;4993007;28;20493;-37
2021/01/26 07:21:16;;;;;;;79.10;65.60;;;19.40;99.90;;;;;;4982696;28;20587;-36
2021/01/26 07:23:47;;;;;;;100.63;85.05;;;19.40;99.90;;;;;;4992629;28;20069;-36
2021/01/26 07:26:24;;;;;;;131.75;109.47;;;19.50;99.90;;;;;;4992360;28;20050;-37
2021/01/26 07:29:10;;;;;;;95.65;78.65;;;19.40;99.90;;;;;;4991464;28;20031;-37
2021/01/26 07:31:45;;;;;;;54.67;42.65;;;19.30;99.90;;;;;;4988960;28;20064;-36
2021/01/26 07:34:27;;;;;;;28.25;21.55;;;19.30;99.90;;;;;;4991753;28;20053;-35
2021/01/26 07:37:18;;;;;;;20.23;13.10;;;19.30;99.90;;;;;;5050862;28;20051;-36
2021/01/26 07:39:57;;;;;;;7.28;6.05;;;19.30;99.90;;;;;;5072019;28;20020;-34
2021/01/26 07:42:29;;;;;;;7.32;5.18;;;19.30;99.90;;;;;;5091620;28;20035;-35
2021/01/26 07:45:31;;;;;;;5.68;3.28;;;19.30;99.90;;;;;;5093823;28;21019;-35
2021/01/26 07:48:02;;;;;;;3.88;2.92;;;19.30;99.90;;;;;;5093746;28;20020;-37
2021/01/26 07:50:34;;;;;;;9.30;1.80;;;19.30;99.90;;;;;;5093977;28;20450;-36
2021/01/26 07:53:17;;;;;;;1.40;1.30;;;19.30;99.90;;;;;;5093800;28;20547;-36
2021/01/26 07:56:40;;;;;;;1.90;1.30;;;19.20;99.90;;;;;;5093413;28;20031;-36
2021/01/26 07:59:27;;;;;;;3.78;1.20;;;19.30;99.90;;;;;;5011069;28;20068;-35
2021/01/26 08:01:57;;;;;;;;;;;19.30;99.90;;;;;;4999855;28;20033;-35
2021/01/26 08:04:24;;;;;;;4.47;1.05;;;19.40;99.90;;;;;;5011002;28;19909;-35
2021/01/26 08:06:59;;;;;;;4.87;1.40;;;19.30;99.90;;;;;;5011358;28;20044;-35
2021/01/26 08:09:35;;;;;;;5.60;1.48;;;19.30;99.90;;;;;;5011700;28;20049;-35
2021/01/26 08:12:08;;;;;;;3.72;1.15;;;19.40;99.90;;;;;;5011163;28;20026;-36
2021/01/26 08:14:46;;;;;;;6.47;1.30;;;19.40;99.90;;;;;;5011379;28;20488;-35
2021/01/26 08:17:16;;;;;;;58.22;48.95;;;19.40;99.90;;;;;;5010986;28;20041;-35
2021/01/26 08:19:48;;;;;;;222.98;196.75;;;19.50;99.90;;;;;;5011516;28;20038;-35
2021/01/26 08:22:19;;;;;;;59.03;51.85;;;19.50;99.90;;;;;;5011259;28;20122;-36
2021/01/26 08:24:46;;;;;;;14.95;11.57;;;19.50;99.90;;;;;;4994925;28;20034;-35
2021/01/26 08:27:23;;;;;;;3.65;2.28;;;19.40;99.90;;;;;;5011262;28;20423;-35
2021/01/26 08:29:49;;;;;;;6.40;4.10;;;19.30;99.90;;;;;;5050164;28;20093;-35
2021/01/26 08:32:27;;;;;;;4.68;1.73;;;19.40;99.90;;;;;;5093148;28;20024;-35
2021/01/26 08:35:12;;;;;;;4.35;1.40;;;19.30;99.90;;;;;;5092120;28;20051;-35
2021/01/26 08:37:41;;;;;;;2.95;1.17;;;19.40;99.90;;;;;;5092684;28;20051;-35
2021/01/26 08:40:31;;;;;;;6.03;1.52;;;19.40;99.90;;;;;;5086867;28;20015;-35
2021/01/26 08:43:01;;;;;;;5.70;1.75;;;19.50;99.90;;;;;;5034793;28;20110;-35
2021/01/26 08:45:26;;;;;;;9.63;1.88;;;19.50;99.90;;;;;;5071950;28;20020;-36
2021/01/26 08:47:57;;;;;;;7.88;2.80;;;19.50;99.90;;;;;;5070367;28;20016;-36
2021/01/26 08:50:40;;;;;;;3.67;1.63;;;19.60;99.90;;;;;;5071867;28;20017;-41
2021/01/26 08:53:27;;;;;;;3.47;1.90;;;19.60;99.90;;;;;;5069414;28;20051;-37
2021/01/26 08:55:54;;;;;;;3.42;1.55;;;19.60;99.90;;;;;;5073121;28;20209;-36
2021/01/26 08:58:53;;;;;;;2.45;1.45;;;19.70;99.90;;;;;;5073000;28;20036;-35
2021/01/26 09:01:22;;;;;;;2.10;0.82;;;19.80;99.90;;;;;;5072880;28;20044;-35
2021/01/26 09:03:50;;;;;;;5.05;3.20;;;19.80;99.90;;;;;;5073041;28;20500;-35
2021/01/26 09:06:43;;;;;;;6.38;4.00;;;19.80;99.90;;;;;;5073167;28;20024;-35
2021/01/26 09:09:24;;;;;;;4.45;2.72;;;20.00;99.90;;;;;;5073056;28;20048;-36
2021/01/26 09:11:54;;;;;;;2.50;1.70;;;20.10;99.90;;;;;;5073082;28;20017;-36
2021/01/26 09:14:38;;;;;;;3.47;2.10;;;20.20;99.90;;;;;;5073380;28;20023;-34
2021/01/26 09:17:25;;;;;;;2.95;1.40;;;20.30;99.90;;;;;;5063948;28;20378;-44
2021/01/26 09:19:55;;;;;;;5.78;1.67;;;20.40;99.90;;;;;;5071419;28;20028;-43
2021/01/26 09:22:32;;;;;;;7.63;1.20;;;20.40;99.90;;;;;;5071350;28;20029;-43
2021/01/26 09:25:05;;;;;;;2.63;0.70;;;20.40;99.90;;;;;;5071315;28;20035;-44
2021/01/26 09:27:35;;;;;;;1.90;0.73;;;20.30;99.90;;;;;;5071582;28;20040;-43
2021/01/26 09:30:11;;;;;;;5.25;0.70;;;20.30;99.90;;;;;;5071869;28;20028;-43
2021/01/26 09:32:46;;;;;;;3.28;1.17;;;20.30;99.90;;;;;;5060952;28;20041;-43
2021/01/26 09:35:25;;;;;;;2.63;0.65;;;20.30;99.90;;;;;;5066234;28;20204;-43
2021/01/26 09:38:09;;;;;;;0.85;0.40;;;20.30;99.90;;;;;;5065610;28;20020;-42
2021/01/26 09:40:38;;;;;;;11.10;5.10;;;20.40;99.90;;;;;;5071622;28;20036;-42
2021/01/26 09:43:05;;;;;;;15.85;10.10;;;20.30;99.90;;;;;;5071533;28;20139;-43
2021/01/26 09:45:31;;;;;;;11.25;8.50;;;20.40;99.90;;;;;;5061090;28;20491;-43
2021/01/26 09:47:56;;;;;;;7.70;3.75;;;20.40;99.90;;;;;;5055490;28;20100;-42
2021/01/26 09:50:28;;;;;;;6.20;4.78;;;20.40;99.90;;;;;;5055538;28;20029;-43
2021/01/26 09:53:01;;;;;;;4.85;1.85;;;20.40;99.90;;;;;;5068222;28;20441;-43
2021/01/26 09:55:28;;;;;;;4.90;2.00;;;20.40;99.90;;;;;;5073032;28;20326;-43
2021/01/26 09:57:56;;;;;;;28.63;24.08;;;20.50;99.90;;;;;;5075184;28;20104;-42
2021/01/26 10:00:24;;;;;;;31.80;27.55;;;20.50;99.90;;;;;;5075390;28;20039;-42
2021/01/26 10:03:01;;;;;;;10.00;7.93;;;20.60;99.90;;;;;;5074712;28;20056;-43
2021/01/26 10:05:29;;;;;;;9.80;6.50;;;20.70;99.90;;;;;;5075300;28;20033;-43
2021/01/26 10:08:12;;;;;;;10.38;6.20;;;20.70;99.90;;;;;;5074546;28;20028;-43
2021/01/26 10:10:39;;;;;;;6.95;3.80;;;20.70;99.90;;;;;;5074619;28;20101;-43
2021/01/26 10:13:29;;;;;;;4.07;1.88;;;20.70;99.90;;;;;;5073927;28;20029;-43
2021/01/26 10:15:55;;;;;;;2.60;0.85;;;20.80;99.90;;;;;;5073914;28;20025;-43
2021/01/26 10:18:25;;;;;;;2.85;0.85;;;20.90;99.90;;;;;;5074372;28;20101;-42
2021/01/26 10:20:58;;;;;;;3.58;1.30;;;20.90;99.90;;;;;;5074931;28;20032;-43
2021/01/26 10:23:35;;;;;;;3.00;1.08;;;20.90;99.90;;;;;;5074418;28;20411;-43
2021/01/26 10:26:15;;;;;;;12.00;1.30;;;21.00;99.90;;;;;;5075023;28;20052;-42
2021/01/26 10:28:59;;;;;;;15.48;2.22;;;21.00;99.90;;;;;;5074398;28;20043;-43
2021/01/26 10:31:25;;;;;;;12.75;1.83;;;21.00;99.90;;;;;;5074992;28;20036;-43
2021/01/26 10:33:51;;;;;;;9.02;1.80;;;21.10;99.90;;;;;;5074446;28;20390;-43
2021/01/26 10:36:21;;;;;;;8.48;5.03;;;21.10;99.90;;;;;;5100295;28;20493;-44
2021/01/26 10:38:47;;;;;;;5.65;2.90;;;21.10;99.90;;;;;;5094519;28;20076;-43
2021/01/26 10:41:27;;;;;;;7.57;5.13;;;21.20;99.90;;;;;;5094442;28;20053;-42
2021/01/26 10:44:13;;;;;;;7.28;4.50;;;21.20;99.90;;;;;;5094652;28;20551;-42
2021/01/26 10:46:45;;;;;;;19.88;15.65;;;21.20;99.90;;;;;;5094117;28;20032;-42
2021/01/26 10:49:14;;;;;;;25.80;18.17;;;21.30;99.90;;;;;;5094379;28;20024;-43
2021/01/26 10:51:41;;;;;;;23.98;19.17;;;21.40;99.90;;;;;;5087756;28;20075;-41
2021/01/26 10:54:08;;;;;;;20.10;15.52;;;21.40;99.90;;;;;;5104044;28;20024;-42
2021/01/26 10:56:34;;;;;;;18.33;11.73;;;21.50;99.90;;;;;;5109009;28;20028;-42
2021/01/26 10:59:00;;;;;;;15.30;10.45;;;21.60;99.90;;;;;;5094964;27;20066;-41
2021/01/26 11:01:26;;;;;;;12.95;8.90;;;21.60;99.90;;;;;;5095293;28;20089;-41
2021/01/26 11:31:32;;;;;;;3.25;1.90;;;21.70;99.90;;;;;;5262949;23;20919008;-33
2021/01/26 11:33:58;;;;;;;6.38;4.35;;;21.80;99.90;;;;;;6134033;23;20424;-33
2021/01/26 11:36:24;;;;;;;3.28;2.97;;;21.80;99.90;;;;;;6134165;23;20006;-33
2021/01/26 11:38:49;;;;;;;3.15;2.30;;;21.80;99.90;;;;;;6134060;23;20005;-33
2021/01/26 11:41:15;;;;;;;3.08;2.58;;;21.90;99.90;;;;;;6134305;23;20365;-33
2021/01/26 11:43:41;;;;;;;5.97;3.38;;;22.00;99.90;;;;;;6133454;23;20013;-33
2021/01/26 11:46:07;;;;;;;11.52;7.43;;;22.10;99.90;;;;;;6133850;23;20076;-33
2021/01/26 11:48:33;;;;;;;14.27;8.93;;;22.20;99.90;;;;;;6133945;23;20002;-33
2021/01/26 11:51:00;;;;;;;11.60;7.80;;;22.40;99.90;;;;;;6108339;23;20005;-33
2021/01/26 11:53:26;;;;;;;14.60;7.97;;;22.70;99.90;;;;;;6133981;23;20052;-34
2021/01/26 11:55:55;;;;;;;8.45;6.22;;;23.10;99.90;;;;;;6134281;23;20005;-33
2021/01/26 11:58:21;;;;;;;9.20;5.68;;;23.20;99.90;;;;;;6133364;23;20455;-33
2021/01/26 12:00:47;;;;;;;5.75;4.22;;;23.30;99.90;;;;;;6134142;23;20002;-33
2021/01/26 12:03:13;;;;;;;7.40;5.03;;;23.30;99.90;;;;;;6134267;23;20436;-33
2021/01/26 12:05:39;;;;;;;7.93;5.05;;;23.30;99.90;;;;;;6133494;23;20006;-33
2021/01/26 12:08:07;;;;;;;10.02;5.22;;;23.30;99.90;;;;;;6133945;23;20417;-33
2021/01/26 12:10:34;;;;;;;9.18;5.07;;;23.30;99.90;;;;;;6106964;23;20006;-33
2021/01/26 12:13:05;;;;;;;7.53;4.60;;;23.30;99.90;;;;;;6107141;23;19997;-33
2021/01/26 12:15:34;;;;;;;7.95;6.53;;;23.40;99.90;;;;;;6132713;23;20010;-33
2021/01/26 12:18:00;;;;;;;19.80;15.07;;;23.40;99.90;;;;;;6076548;23;20017;-34
2021/01/26 12:20:27;;;;;;;15.68;13.05;;;23.40;99.90;;;;;;6126237;23;20125;-33
2021/01/26 12:22:54;;;;;;;42.38;34.63;;;23.40;99.90;;;;;;6101395;23;20002;-33
2021/01/26 12:25:21;;;;;;;37.10;31.67;;;23.40;99.90;;;;;;6126470;23;20010;-33
2021/01/26 12:27:47;;;;;;;28.02;21.67;;;23.50;99.90;;;;;;6100874;23;20009;-33
2021/01/26 12:30:14;;;;;;;25.55;21.23;;;23.60;99.90;;;;;;6126193;23;20073;-33
2021/01/26 12:32:40;;;;;;;11.05;8.70;;;23.60;99.90;;;;;;6126804;23;20002;-33
2021/01/26 12:35:11;;;;;;;6.65;6.03;;;23.60;99.90;;;;;;6125824;23;20062;-33
2021/01/26 12:37:37;;;;;;;19.95;17.52;;;23.50;99.90;;;;;;6126984;23;20035;-33
2021/01/26 12:40:04;;;;;;;39.53;30.42;;;23.60;99.90;;;;;;6126194;23;20485;-33
2021/01/26 12:42:30;;;;;;;27.25;20.10;;;23.50;99.90;;;;;;6126094;23;20009;-33
2021/01/26 12:44:56;;;;;;;15.70;12.63;;;23.50;99.90;;;;;;6125506;23;20010;-33
2021/01/26 12:47:24;;;;;;;13.30;9.88;;;23.50;99.90;;;;;;6126601;23;20026;-34
2021/01/26 12:49:50;;;;;;;22.50;13.27;;;23.60;99.90;;;;;;6099470;23;20022;-33
2021/01/26 12:52:16;;;;;;;15.25;9.95;;;23.60;99.90;;;;;;6125953;23;20002;-34
2021/01/26 12:54:42;;;;;;;17.70;11.32;;;23.70;99.90;;;;;;6126089;23;20006;-33
2021/01/26 12:57:08;;;;;;;14.15;10.57;;;23.70;99.90;;;;;;6126230;23;20006;-33
2021/01/26 12:59:34;;;;;;;14.02;10.02;;;23.80;99.90;;;;;;6126133;23;20356;-33
2021/01/26 13:02:01;;;;;;;15.45;10.60;;;23.80;99.90;;;;;;6126072;23;20420;-33
2021/01/26 13:04:27;;;;;;;14.02;10.45;;;23.80;99.90;;;;;;6126034;23;20028;-33
2021/01/26 13:06:53;;;;;;;16.60;9.43;;;23.80;99.90;;;;;;6126313;23;20455;-33
2021/01/26 13:09:18;;;;;;;13.93;10.00;;;23.80;99.90;;;;;;6099688;23;20053;-33
2021/01/26 13:11:44;;;;;;;12.52;8.45;;;23.80;99.90;;;;;;6125883;23;20036;-33
2021/01/26 13:14:10;;;;;;;11.32;9.77;;;23.90;99.90;;;;;;6125499;23;20021;-33
2021/01/26 13:16:38;;;;;;;14.82;10.68;;;23.90;99.90;;;;;;6125851;23;20048;-33
2021/01/26 13:19:06;;;;;;;12.18;9.82;;;23.90;99.90;;;;;;6099485;23;20026;-33
2021/01/26 13:21:33;;;;;;;11.25;9.07;;;24.00;99.90;;;;;;6125323;23;20002;-33
2021/01/26 13:23:59;;;;;;;11.10;8.55;;;24.00;99.90;;;;;;6100092;23;20002;-33
2021/01/26 13:26:25;;;;;;;9.13;7.53;;;24.00;99.90;;;;;;6125333;23;20005;-33
2021/01/26 13:28:51;;;;;;;10.60;8.45;;;24.10;99.90;;;;;;6125165;23;19998;-33
2021/01/26 13:31:17;;;;;;;9.73;7.65;;;24.10;99.90;;;;;;6124998;23;20014;-33
2021/01/26 13:33:43;;;;;;;8.18;7.28;;;24.20;99.90;;;;;;6126046;23;20002;-33
2021/01/26 13:36:12;;;;;;;10.88;8.38;;;24.20;99.90;;;;;;6099513;23;20313;-33
2021/01/26 13:38:39;;;;;;;8.40;7.28;;;24.20;99.90;;;;;;6125393;23;20038;-33
2021/01/26 13:41:05;;;;;;;10.43;7.18;;;24.20;99.90;;;;;;6099669;23;20009;-33